createdAt,value
2019-02-15T13:32:18.700Z,8.50
2019-02-15T13:34:48.641Z,6.55
2019-02-15T13:37:21.981Z,5.60
2019-02-15T13:39:55.207Z,5.75
2019-02-15T13:42:25.214Z,5.78
2019-02-15T13:44:56.807Z,6.92
2019-02-15T13:50:40.775Z,5.78
2019-02-15T13:53:10.251Z,5.87
2019-02-15T13:55:46.526Z,6.28
2019-02-15T13:58:26.769Z,5.22
2019-02-15T14:00:55.933Z,5.72
2019-02-15T14:03:41.139Z,4.70
2019-02-15T14:06:13.375Z,5.22
2019-02-15T14:09:05.360Z,4.08
2019-02-15T14:11:41.339Z,4.45
2019-02-15T14:14:10.394Z,5.62
2019-02-15T14:16:41.015Z,4.45
2019-02-15T14:19:10.090Z,4.22
2019-02-15T14:21:44.299Z,5.20
2019-02-15T14:24:08.511Z,3.80
2019-02-15T14:26:37.619Z,3.97
2019-02-15T14:29:06.701Z,4.20
2019-02-15T14:31:35.905Z,4.42
2019-02-15T14:34:05.201Z,4.60
2019-02-15T14:36:34.518Z,4.05
2019-02-15T14:39:04.722Z,4.57
2019-02-15T14:41:33.894Z,4.78
2019-02-15T14:44:03.022Z,4.13
2019-02-15T14:46:32.123Z,4.33
2019-02-15T14:49:01.199Z,4.03
2019-02-15T14:51:30.309Z,3.77
2019-02-15T14:53:59.385Z,4.40
2019-02-15T14:56:29.486Z,4.33
2019-02-15T14:58:59.662Z,4.90
2019-02-15T15:01:28.981Z,3.97
2019-02-15T15:03:58.444Z,4.53
2019-02-15T15:06:28.069Z,4.33
2019-02-15T15:08:57.209Z,4.70
2019-02-15T15:11:26.367Z,4.83
2019-02-15T15:13:55.489Z,5.33
2019-02-15T15:16:24.599Z,5.10
2019-02-15T15:18:53.941Z,4.53
2019-02-15T15:21:23.024Z,4.77
2019-02-15T15:23:52.864Z,5.17
2019-02-15T15:26:21.965Z,5.10
2019-02-15T15:28:51.183Z,4.90
2019-02-15T15:31:21.844Z,5.10
2019-02-15T15:33:49.992Z,5.10
2019-02-15T15:36:19.156Z,5.73
2019-02-15T15:38:48.383Z,5.83
2019-02-15T15:41:17.574Z,5.00
2019-02-15T15:43:46.831Z,5.50
2019-02-15T15:46:16.095Z,5.10
2019-02-15T15:48:45.798Z,8.40
2019-02-15T15:51:17.639Z,6.33
2019-02-15T15:53:48.259Z,5.50
2019-02-15T15:56:18.551Z,4.90
2019-02-15T15:58:48.415Z,6.10
2019-02-15T16:01:24.789Z,5.27
2019-02-15T16:04:00.095Z,6.33
2019-02-15T16:06:31.177Z,6.30
2019-02-15T16:09:06.601Z,8.73
2019-02-15T16:11:43.020Z,6.43
2019-02-15T16:14:18.566Z,7.67
2019-02-15T16:16:56.478Z,7.43
2019-02-15T16:19:40.123Z,7.43
2019-02-15T16:22:07.312Z,6.93
2019-02-15T16:27:38.943Z,6.43
2019-02-15T16:30:34.017Z,8.03
2019-02-15T16:33:10.423Z,7.23
2019-02-15T16:35:38.487Z,6.07
2019-02-15T16:38:11.502Z,6.50
2019-02-15T16:40:43.475Z,6.87
2019-02-15T16:43:26.643Z,6.73
2019-02-15T16:46:05.990Z,6.67
2019-02-15T16:48:41.932Z,7.00
2019-02-15T16:51:05.584Z,7.57
2019-02-15T16:53:35.685Z,6.63
2019-02-15T16:56:05.508Z,7.53
2019-02-15T16:58:37.910Z,7.43
2019-02-15T17:01:07.264Z,7.60
2019-02-15T17:03:36.444Z,7.70
2019-02-15T17:06:05.581Z,6.80
2019-02-15T17:08:35.128Z,7.23
2019-02-15T17:11:04.194Z,8.57
2019-02-15T17:13:34.754Z,7.50
2019-02-15T17:16:02.619Z,7.40
2019-02-15T17:18:31.789Z,7.90
2019-02-15T17:21:03.184Z,7.43
2019-02-15T17:23:32.483Z,7.83
2019-02-15T17:26:01.675Z,8.17
2019-02-15T17:28:31.421Z,7.83
2019-02-15T17:31:00.613Z,8.27
2019-02-15T17:33:31.000Z,8.27
2019-02-15T17:36:00.733Z,9.20
2019-02-15T17:38:29.805Z,9.30
2019-02-15T17:40:58.883Z,9.90
2019-02-15T17:43:30.882Z,9.70
2019-02-15T17:46:18.993Z,9.70
2019-02-15T17:49:00.594Z,9.60
2019-02-15T17:51:39.773Z,8.97
2019-02-15T17:54:22.601Z,9.30
2019-02-15T17:56:55.521Z,9.43
2019-02-15T17:59:26.635Z,8.77
2019-02-15T18:01:55.829Z,10.50
2019-02-15T18:04:25.973Z,11.93
2019-02-15T18:06:55.088Z,17.80
2019-02-15T18:09:26.079Z,17.83
2019-02-15T18:11:55.675Z,15.57
2019-02-15T18:14:27.011Z,15.17
2019-02-15T18:16:59.102Z,15.93
2019-02-15T18:19:33.310Z,14.57
2019-02-15T18:22:08.044Z,14.43
2019-02-15T18:24:41.956Z,14.83
2019-02-15T18:33:38.971Z,13.23
2019-02-15T18:36:16.699Z,13.67
2019-02-15T18:39:02.049Z,11.60
2019-02-15T18:50:16.120Z,10.33
2019-02-15T18:52:46.403Z,9.97
2019-02-15T18:55:15.867Z,10.40
2019-02-15T18:57:45.077Z,10.47
2019-02-15T19:00:14.793Z,11.37
2019-02-15T19:02:47.069Z,9.53
2019-02-15T19:05:16.447Z,9.80
2019-02-15T19:07:45.779Z,10.27
2019-02-15T19:10:18.056Z,9.60
2019-02-15T19:12:47.350Z,10.10
2019-02-15T19:15:16.577Z,9.60
2019-02-15T19:17:45.822Z,10.53
2019-02-15T19:20:15.201Z,24.13
2019-02-15T19:22:44.616Z,17.80
2019-02-15T19:25:13.856Z,16.90
2019-02-15T19:27:43.145Z,10.53
2019-02-15T19:30:16.785Z,11.50
2019-02-15T19:32:46.258Z,10.27
2019-02-15T19:35:15.507Z,10.00
2019-02-15T19:37:45.621Z,14.70
2019-02-15T19:40:14.862Z,11.47
2019-02-15T19:42:45.697Z,9.43
2019-02-15T19:45:15.060Z,9.03
2019-02-15T19:47:44.359Z,8.70
2019-02-15T19:50:15.622Z,8.30
2019-02-15T19:52:45.402Z,8.00
2019-02-15T19:55:14.759Z,8.93
2019-02-15T19:57:43.815Z,9.13
2019-02-15T20:00:15.084Z,8.67
2019-02-15T20:02:44.179Z,8.27
2019-02-15T20:05:13.740Z,8.43
2019-02-15T20:07:42.925Z,8.57
2019-02-15T20:10:15.695Z,9.53
2019-02-15T20:12:48.303Z,10.73
2019-02-15T20:15:17.980Z,35.33
2019-02-15T20:17:48.931Z,25.23
2019-02-15T20:20:20.055Z,11.33
2019-02-15T20:22:49.674Z,13.70
2019-02-15T20:25:19.767Z,11.33
2019-02-15T20:27:48.967Z,9.00
2019-02-15T20:30:20.443Z,11.00
2019-02-15T20:32:51.304Z,23.03
2019-02-15T20:35:22.201Z,24.37
2019-02-15T20:37:52.466Z,11.30
2019-02-15T20:40:21.882Z,10.00
2019-02-15T20:42:51.320Z,10.77
2019-02-15T20:45:21.362Z,9.40
2019-02-15T20:47:50.549Z,8.50
2019-02-15T20:50:19.802Z,9.33
2019-02-15T20:52:48.977Z,10.70
2019-02-15T20:55:18.244Z,9.13
2019-02-15T20:57:47.467Z,10.23
2019-02-15T21:00:19.058Z,11.07
2019-02-15T21:02:48.272Z,11.00
2019-02-15T21:05:17.289Z,10.87
2019-02-15T21:07:46.668Z,12.10
2019-02-15T21:10:16.129Z,10.67
2019-02-15T21:12:45.416Z,10.53
2019-02-15T21:15:14.410Z,11.50
2019-02-15T21:17:43.494Z,9.70
2019-02-15T21:20:12.533Z,10.60
2019-02-15T21:22:41.799Z,12.07
2019-02-15T21:25:11.827Z,11.20
2019-02-15T21:27:40.940Z,10.30
2019-02-15T21:30:12.377Z,10.13
2019-02-15T21:32:41.929Z,11.23
2019-02-15T21:35:11.047Z,15.97
2019-02-15T21:37:40.188Z,12.47
2019-02-15T21:40:11.007Z,11.13
2019-02-15T21:42:40.188Z,10.60
2019-02-15T21:45:10.623Z,11.77
2019-02-15T21:47:39.871Z,10.03
2019-02-15T21:50:16.709Z,11.00
2019-02-15T21:52:44.216Z,11.17
2019-02-15T21:55:08.103Z,11.23
2019-02-15T21:57:37.216Z,11.60
2019-02-15T22:00:10.688Z,12.43
2019-02-15T22:02:39.921Z,11.53
2019-02-15T22:05:09.240Z,10.77
2019-02-15T22:07:38.507Z,10.43
2019-02-15T22:10:08.834Z,11.17
2019-02-15T22:12:40.590Z,11.63
2019-02-15T22:15:12.670Z,11.20
2019-02-15T22:17:41.850Z,13.53
2019-02-15T22:20:13.302Z,12.10
2019-02-15T22:22:42.466Z,12.67
2019-02-15T22:25:14.382Z,12.57
2019-02-15T22:27:44.096Z,10.83
2019-02-15T22:30:14.492Z,12.90
2019-02-15T22:32:43.761Z,11.90
2019-02-15T22:35:12.756Z,9.80
2019-02-15T22:37:41.824Z,12.27
2019-02-15T22:40:22.498Z,13.40
2019-02-15T22:42:51.499Z,11.30
2019-02-15T22:45:20.606Z,9.93
2019-02-15T22:47:49.710Z,11.17
2019-02-15T22:50:18.719Z,12.90
2019-02-15T22:52:48.060Z,10.13
2019-02-15T22:55:16.908Z,13.13
2019-02-15T22:57:45.990Z,14.10
2019-02-15T23:00:21.522Z,14.70
2019-02-15T23:02:51.367Z,12.07
2019-02-15T23:05:20.492Z,15.93
2019-02-15T23:07:49.476Z,11.70
2019-02-15T23:10:18.628Z,12.37
2019-02-15T23:12:47.732Z,10.30
2019-02-15T23:15:17.003Z,11.17
2019-02-15T23:17:46.074Z,12.90
2019-02-15T23:20:15.341Z,16.27
2019-02-15T23:22:46.048Z,13.20
2019-02-15T23:25:15.257Z,11.33
2019-02-15T23:27:44.292Z,12.70
2019-02-15T23:30:13.439Z,11.20
2019-02-15T23:32:42.482Z,11.00
2019-02-15T23:35:11.556Z,11.23
2019-02-15T23:37:41.220Z,13.63
2019-02-15T23:40:10.268Z,9.67
2019-02-15T23:42:39.250Z,8.57
2019-02-15T23:45:08.291Z,9.07
2019-02-15T23:47:37.333Z,9.27
2019-02-15T23:50:06.948Z,8.57
2019-02-15T23:52:36.015Z,9.17
2019-02-15T23:55:05.043Z,9.83
2019-02-15T23:57:34.154Z,8.73
